Dunbar, United Kingdom
Current Conditions -  °F | °C
As of 2:50 AM on Thursday 23 Oct 2014 (Local Time) from EGQL Reporting Station
Broken Clouds Broken Clouds  
Wind Chill: 54°   Ceiling: 1400
Heat Index: 54°   Visibility: 6mi
Dew Point: 48°   Wind: 18mph
Humidity: 82%   Direction: 230°SW
Pressure: 29.8"   Gusts: NA
Location:  56°N, 2.51°W
Report Text: EGQL 230150Z 23016KT 9999 BKN014 BKN023 12/09 Q1009 GRN
Loading
Personal Weather Stations






























Interactive Weather Map New forecast layout! Learn more

10-Day Weather Forecast

Advertisements
Track Severe Weather on mobile